sensor_id;sensor_type;location;lat;lon;timestamp;P1;durP1;ratioP1;P2;durP2;ratioP2
7531;SDS011;3807;49.030;8.714;2023-12-07T00:01:20;18.60;;;10.17;;
7531;SDS011;3807;49.030;8.714;2023-12-07T00:03:46;20.33;;;10.77;;
7531;SDS011;3807;49.030;8.714;2023-12-07T00:06:11;15.37;;;9.20;;
7531;SDS011;3807;49.030;8.714;2023-12-07T00:08:36;17.77;;;9.63;;
7531;SDS011;3807;49.030;8.714;2023-12-07T00:11:02;13.93;;;9.13;;
7531;SDS011;3807;49.030;8.714;2023-12-07T00:13:27;14.67;;;9.10;;
7531;SDS011;3807;49.030;8.714;2023-12-07T00:15:52;14.87;;;8.87;;
7531;SDS011;3807;49.030;8.714;2023-12-07T00:18:18;11.53;;;7.83;;
7531;SDS011;3807;49.030;8.714;2023-12-07T00:20:44;15.83;;;9.00;;
7531;SDS011;3807;49.030;8.714;2023-12-07T00:23:09;11.83;;;7.67;;
7531;SDS011;3807;49.030;8.714;2023-12-07T00:25:35;17.10;;;9.07;;
7531;SDS011;3807;49.030;8.714;2023-12-07T00:28:00;11.33;;;7.73;;
7531;SDS011;3807;49.030;8.714;2023-12-07T00:30:25;13.77;;;8.63;;
7531;SDS011;3807;49.030;8.714;2023-12-07T00:32:51;16.50;;;8.03;;
7531;SDS011;3807;49.030;8.714;2023-12-07T00:35:16;13.33;;;7.97;;
7531;SDS011;3807;49.030;8.714;2023-12-07T00:37:43;13.00;;;7.90;;
7531;SDS011;3807;49.030;8.714;2023-12-07T00:40:08;14.83;;;8.33;;
7531;SDS011;3807;49.030;8.714;2023-12-07T00:42:34;11.73;;;7.30;;
7531;SDS011;3807;49.030;8.714;2023-12-07T00:45:02;11.53;;;7.57;;
7531;SDS011;3807;49.030;8.714;2023-12-07T00:47:27;12.07;;;7.67;;
7531;SDS011;3807;49.030;8.714;2023-12-07T00:49:52;11.93;;;7.20;;
7531;SDS011;3807;49.030;8.714;2023-12-07T00:52:18;14.27;;;8.13;;
7531;SDS011;3807;49.030;8.714;2023-12-07T00:54:43;13.43;;;8.23;;
7531;SDS011;3807;49.030;8.714;2023-12-07T00:57:09;10.33;;;7.40;;
7531;SDS011;3807;49.030;8.714;2023-12-07T00:59:34;15.13;;;7.93;;
7531;SDS011;3807;49.030;8.714;2023-12-07T01:02:01;13.57;;;7.67;;
7531;SDS011;3807;49.030;8.714;2023-12-07T01:04:27;13.70;;;7.83;;
7531;SDS011;3807;49.030;8.714;2023-12-07T01:06:53;11.13;;;8.07;;
7531;SDS011;3807;49.030;8.714;2023-12-07T01:09:19;9.33;;;7.03;;
7531;SDS011;3807;49.030;8.714;2023-12-07T01:11:44;12.43;;;8.00;;
7531;SDS011;3807;49.030;8.714;2023-12-07T01:14:10;14.57;;;8.90;;
7531;SDS011;3807;49.030;8.714;2023-12-07T01:16:36;15.97;;;9.03;;
7531;SDS011;3807;49.030;8.714;2023-12-07T01:19:02;11.20;;;7.23;;
7531;SDS011;3807;49.030;8.714;2023-12-07T01:21:27;16.03;;;8.30;;
7531;SDS011;3807;49.030;8.714;2023-12-07T01:23:53;13.17;;;8.37;;
7531;SDS011;3807;49.030;8.714;2023-12-07T01:26:18;17.97;;;9.00;;
7531;SDS011;3807;49.030;8.714;2023-12-07T01:28:43;12.60;;;7.60;;
7531;SDS011;3807;49.030;8.714;2023-12-07T01:31:09;17.30;;;8.63;;
7531;SDS011;3807;49.030;8.714;2023-12-07T01:33:34;12.93;;;8.10;;
7531;SDS011;3807;49.030;8.714;2023-12-07T01:35:59;14.73;;;8.33;;
7531;SDS011;3807;49.030;8.714;2023-12-07T01:38:25;12.17;;;8.23;;
7531;SDS011;3807;49.030;8.714;2023-12-07T01:40:50;13.03;;;7.77;;
7531;SDS011;3807;49.030;8.714;2023-12-07T01:43:15;11.97;;;7.77;;
7531;SDS011;3807;49.030;8.714;2023-12-07T01:45:41;10.60;;;6.70;;
7531;SDS011;3807;49.030;8.714;2023-12-07T01:48:06;12.27;;;7.00;;
7531;SDS011;3807;49.030;8.714;2023-12-07T01:50:32;11.37;;;7.13;;
7531;SDS011;3807;49.030;8.714;2023-12-07T01:53:02;17.93;;;7.77;;
7531;SDS011;3807;49.030;8.714;2023-12-07T01:55:29;11.67;;;7.90;;
7531;SDS011;3807;49.030;8.714;2023-12-07T01:57:56;18.23;;;8.40;;
7531;SDS011;3807;49.030;8.714;2023-12-07T02:00:22;10.57;;;6.60;;
7531;SDS011;3807;49.030;8.714;2023-12-07T02:02:48;10.77;;;6.97;;
7531;SDS011;3807;49.030;8.714;2023-12-07T02:05:15;9.23;;;6.70;;
7531;SDS011;3807;49.030;8.714;2023-12-07T02:07:41;10.90;;;7.53;;
7531;SDS011;3807;49.030;8.714;2023-12-07T02:10:07;11.43;;;6.47;;
7531;SDS011;3807;49.030;8.714;2023-12-07T02:12:33;14.87;;;6.87;;
7531;SDS011;3807;49.030;8.714;2023-12-07T02:15:00;11.67;;;7.43;;
7531;SDS011;3807;49.030;8.714;2023-12-07T02:17:28;16.17;;;8.77;;
7531;SDS011;3807;49.030;8.714;2023-12-07T02:20:01;13.00;;;7.87;;
7531;SDS011;3807;49.030;8.714;2023-12-07T02:22:47;12.17;;;8.20;;
7531;SDS011;3807;49.030;8.714;2023-12-07T02:25:18;15.47;;;8.83;;
7531;SDS011;3807;49.030;8.714;2023-12-07T02:27:45;11.87;;;7.83;;
7531;SDS011;3807;49.030;8.714;2023-12-07T02:30:11;16.63;;;9.13;;
7531;SDS011;3807;49.030;8.714;2023-12-07T02:32:41;9.63;;;7.07;;
7531;SDS011;3807;49.030;8.714;2023-12-07T02:35:09;17.07;;;9.97;;
7531;SDS011;3807;49.030;8.714;2023-12-07T02:37:45;16.37;;;10.10;;
7531;SDS011;3807;49.030;8.714;2023-12-07T02:40:14;20.37;;;12.00;;
7531;SDS011;3807;49.030;8.714;2023-12-07T02:42:43;20.17;;;10.70;;
7531;SDS011;3807;49.030;8.714;2023-12-07T02:45:09;17.90;;;9.90;;
7531;SDS011;3807;49.030;8.714;2023-12-07T02:47:36;17.60;;;10.43;;
7531;SDS011;3807;49.030;8.714;2023-12-07T02:50:05;21.03;;;11.30;;
7531;SDS011;3807;49.030;8.714;2023-12-07T02:52:32;20.50;;;10.67;;
7531;SDS011;3807;49.030;8.714;2023-12-07T02:54:58;14.80;;;9.57;;
7531;SDS011;3807;49.030;8.714;2023-12-07T02:57:23;14.17;;;8.83;;
7531;SDS011;3807;49.030;8.714;2023-12-07T02:59:49;15.03;;;8.70;;
7531;SDS011;3807;49.030;8.714;2023-12-07T03:02:14;15.87;;;8.70;;
7531;SDS011;3807;49.030;8.714;2023-12-07T03:04:39;11.90;;;7.77;;
7531;SDS011;3807;49.030;8.714;2023-12-07T03:07:05;13.97;;;8.33;;
7531;SDS011;3807;49.030;8.714;2023-12-07T03:09:30;19.87;;;9.43;;
7531;SDS011;3807;49.030;8.714;2023-12-07T03:11:55;24.13;;;12.17;;
7531;SDS011;3807;49.030;8.714;2023-12-07T03:14:21;21.00;;;10.43;;
7531;SDS011;3807;49.030;8.714;2023-12-07T03:16:46;16.93;;;8.83;;
7531;SDS011;3807;49.030;8.714;2023-12-07T03:19:11;13.90;;;8.37;;
7531;SDS011;3807;49.030;8.714;2023-12-07T03:21:40;14.93;;;8.77;;
7531;SDS011;3807;49.030;8.714;2023-12-07T03:24:07;15.13;;;8.63;;
7531;SDS011;3807;49.030;8.714;2023-12-07T03:26:33;21.43;;;10.53;;
7531;SDS011;3807;49.030;8.714;2023-12-07T03:28:59;17.63;;;9.93;;
7531;SDS011;3807;49.030;8.714;2023-12-07T03:31:24;17.07;;;9.47;;
7531;SDS011;3807;49.030;8.714;2023-12-07T03:33:50;16.10;;;8.33;;
7531;SDS011;3807;49.030;8.714;2023-12-07T03:36:15;12.17;;;8.33;;
7531;SDS011;3807;49.030;8.714;2023-12-07T03:38:40;13.80;;;8.40;;
7531;SDS011;3807;49.030;8.714;2023-12-07T03:41:06;14.93;;;7.67;;
7531;SDS011;3807;49.030;8.714;2023-12-07T03:43:31;13.57;;;8.23;;
7531;SDS011;3807;49.030;8.714;2023-12-07T03:45:56;11.77;;;7.77;;
7531;SDS011;3807;49.030;8.714;2023-12-07T03:48:22;10.33;;;7.30;;
7531;SDS011;3807;49.030;8.714;2023-12-07T03:50:47;15.17;;;7.80;;
7531;SDS011;3807;49.030;8.714;2023-12-07T03:53:12;11.70;;;7.20;;
7531;SDS011;3807;49.030;8.714;2023-12-07T03:55:38;11.67;;;7.33;;
7531;SDS011;3807;49.030;8.714;2023-12-07T03:58:04;14.40;;;8.60;;
7531;SDS011;3807;49.030;8.714;2023-12-07T04:00:29;15.70;;;8.37;;
7531;SDS011;3807;49.030;8.714;2023-12-07T04:02:56;12.63;;;8.40;;
7531;SDS011;3807;49.030;8.714;2023-12-07T04:05:22;13.43;;;8.67;;
7531;SDS011;3807;49.030;8.714;2023-12-07T04:07:47;15.03;;;8.30;;
7531;SDS011;3807;49.030;8.714;2023-12-07T04:10:12;15.00;;;8.47;;
7531;SDS011;3807;49.030;8.714;2023-12-07T04:12:38;9.97;;;6.93;;
7531;SDS011;3807;49.030;8.714;2023-12-07T04:15:03;13.37;;;7.73;;
7531;SDS011;3807;49.030;8.714;2023-12-07T04:17:29;12.47;;;7.73;;
7531;SDS011;3807;49.030;8.714;2023-12-07T04:19:55;14.67;;;9.33;;
7531;SDS011;3807;49.030;8.714;2023-12-07T04:22:20;14.67;;;7.93;;
7531;SDS011;3807;49.030;8.714;2023-12-07T04:24:45;18.93;;;8.67;;
7531;SDS011;3807;49.030;8.714;2023-12-07T04:27:11;13.60;;;8.33;;
7531;SDS011;3807;49.030;8.714;2023-12-07T04:29:37;18.83;;;8.53;;
7531;SDS011;3807;49.030;8.714;2023-12-07T04:32:02;11.10;;;7.60;;
7531;SDS011;3807;49.030;8.714;2023-12-07T04:34:29;10.67;;;7.10;;
7531;SDS011;3807;49.030;8.714;2023-12-07T04:36:54;11.13;;;7.00;;
7531;SDS011;3807;49.030;8.714;2023-12-07T04:39:19;12.47;;;7.80;;
7531;SDS011;3807;49.030;8.714;2023-12-07T04:41:45;14.23;;;7.53;;
7531;SDS011;3807;49.030;8.714;2023-12-07T04:44:10;11.80;;;7.87;;
7531;SDS011;3807;49.030;8.714;2023-12-07T04:46:36;11.67;;;7.13;;
7531;SDS011;3807;49.030;8.714;2023-12-07T04:49:01;14.67;;;7.67;;
7531;SDS011;3807;49.030;8.714;2023-12-07T04:51:27;11.63;;;6.70;;
7531;SDS011;3807;49.030;8.714;2023-12-07T04:53:52;13.03;;;7.43;;
7531;SDS011;3807;49.030;8.714;2023-12-07T04:56:17;13.53;;;7.80;;
7531;SDS011;3807;49.030;8.714;2023-12-07T04:58:43;23.43;;;10.27;;
7531;SDS011;3807;49.030;8.714;2023-12-07T05:01:08;19.93;;;10.60;;
7531;SDS011;3807;49.030;8.714;2023-12-07T05:03:33;17.43;;;8.43;;
7531;SDS011;3807;49.030;8.714;2023-12-07T05:05:59;16.03;;;8.43;;
7531;SDS011;3807;49.030;8.714;2023-12-07T05:08:24;12.27;;;7.83;;
7531;SDS011;3807;49.030;8.714;2023-12-07T05:10:50;10.53;;;7.00;;
7531;SDS011;3807;49.030;8.714;2023-12-07T05:13:16;13.33;;;7.80;;
7531;SDS011;3807;49.030;8.714;2023-12-07T05:15:42;11.90;;;7.87;;
7531;SDS011;3807;49.030;8.714;2023-12-07T05:18:07;12.13;;;8.00;;
7531;SDS011;3807;49.030;8.714;2023-12-07T05:20:32;9.97;;;7.30;;
7531;SDS011;3807;49.030;8.714;2023-12-07T05:22:59;11.37;;;7.50;;
7531;SDS011;3807;49.030;8.714;2023-12-07T05:25:24;12.03;;;7.60;;
7531;SDS011;3807;49.030;8.714;2023-12-07T05:27:50;16.10;;;8.30;;
7531;SDS011;3807;49.030;8.714;2023-12-07T05:30:15;13.87;;;7.87;;
7531;SDS011;3807;49.030;8.714;2023-12-07T05:32:40;10.80;;;7.43;;
7531;SDS011;3807;49.030;8.714;2023-12-07T05:35:06;14.37;;;7.77;;
7531;SDS011;3807;49.030;8.714;2023-12-07T05:37:32;15.67;;;7.80;;
7531;SDS011;3807;49.030;8.714;2023-12-07T05:39:57;12.80;;;7.70;;
7531;SDS011;3807;49.030;8.714;2023-12-07T05:42:23;11.57;;;7.20;;
7531;SDS011;3807;49.030;8.714;2023-12-07T05:44:48;14.27;;;7.43;;
7531;SDS011;3807;49.030;8.714;2023-12-07T05:47:13;14.97;;;7.70;;
7531;SDS011;3807;49.030;8.714;2023-12-07T05:49:39;13.47;;;7.10;;
7531;SDS011;3807;49.030;8.714;2023-12-07T05:52:04;12.63;;;8.20;;
7531;SDS011;3807;49.030;8.714;2023-12-07T05:54:30;11.63;;;7.90;;
7531;SDS011;3807;49.030;8.714;2023-12-07T05:56:55;10.93;;;7.23;;
7531;SDS011;3807;49.030;8.714;2023-12-07T05:59:21;17.50;;;9.43;;
7531;SDS011;3807;49.030;8.714;2023-12-07T06:01:47;14.13;;;8.50;;
7531;SDS011;3807;49.030;8.714;2023-12-07T06:04:14;17.03;;;7.93;;
7531;SDS011;3807;49.030;8.714;2023-12-07T06:06:41;14.37;;;7.17;;
7531;SDS011;3807;49.030;8.714;2023-12-07T06:09:06;12.23;;;6.87;;
7531;SDS011;3807;49.030;8.714;2023-12-07T06:11:32;15.17;;;7.10;;
7531;SDS011;3807;49.030;8.714;2023-12-07T06:13:59;21.70;;;7.20;;
7531;SDS011;3807;49.030;8.714;2023-12-07T06:16:24;11.73;;;7.00;;
7531;SDS011;3807;49.030;8.714;2023-12-07T06:18:51;14.63;;;7.63;;
7531;SDS011;3807;49.030;8.714;2023-12-07T06:21:16;12.93;;;7.80;;
7531;SDS011;3807;49.030;8.714;2023-12-07T06:23:42;17.83;;;8.93;;
7531;SDS011;3807;49.030;8.714;2023-12-07T06:26:07;15.57;;;8.40;;
7531;SDS011;3807;49.030;8.714;2023-12-07T06:28:32;13.63;;;8.43;;
7531;SDS011;3807;49.030;8.714;2023-12-07T06:30:59;19.63;;;8.40;;
7531;SDS011;3807;49.030;8.714;2023-12-07T06:33:29;13.80;;;7.80;;
7531;SDS011;3807;49.030;8.714;2023-12-07T06:35:55;12.37;;;7.90;;
7531;SDS011;3807;49.030;8.714;2023-12-07T06:38:20;19.03;;;8.50;;
7531;SDS011;3807;49.030;8.714;2023-12-07T06:40:45;13.60;;;8.03;;
7531;SDS011;3807;49.030;8.714;2023-12-07T06:43:11;13.40;;;8.40;;
7531;SDS011;3807;49.030;8.714;2023-12-07T06:45:36;13.23;;;7.47;;
7531;SDS011;3807;49.030;8.714;2023-12-07T06:48:02;14.27;;;7.50;;
7531;SDS011;3807;49.030;8.714;2023-12-07T06:50:27;11.30;;;7.37;;
7531;SDS011;3807;49.030;8.714;2023-12-07T06:52:52;13.10;;;7.77;;
7531;SDS011;3807;49.030;8.714;2023-12-07T06:55:18;11.67;;;7.17;;
7531;SDS011;3807;49.030;8.714;2023-12-07T06:57:44;12.87;;;7.50;;
7531;SDS011;3807;49.030;8.714;2023-12-07T07:00:10;14.67;;;8.40;;
7531;SDS011;3807;49.030;8.714;2023-12-07T07:02:39;15.17;;;7.77;;
7531;SDS011;3807;49.030;8.714;2023-12-07T07:05:04;13.97;;;8.20;;
7531;SDS011;3807;49.030;8.714;2023-12-07T07:07:31;13.83;;;7.30;;
7531;SDS011;3807;49.030;8.714;2023-12-07T07:09:56;13.70;;;8.60;;
7531;SDS011;3807;49.030;8.714;2023-12-07T07:12:22;13.27;;;8.03;;
7531;SDS011;3807;49.030;8.714;2023-12-07T07:14:48;12.33;;;7.67;;
7531;SDS011;3807;49.030;8.714;2023-12-07T07:17:14;12.20;;;7.40;;
7531;SDS011;3807;49.030;8.714;2023-12-07T07:19:40;14.60;;;7.93;;
7531;SDS011;3807;49.030;8.714;2023-12-07T07:22:07;14.30;;;7.77;;
7531;SDS011;3807;49.030;8.714;2023-12-07T07:24:34;12.97;;;8.23;;
7531;SDS011;3807;49.030;8.714;2023-12-07T07:26:59;17.37;;;7.83;;
7531;SDS011;3807;49.030;8.714;2023-12-07T07:29:25;16.93;;;8.23;;
7531;SDS011;3807;49.030;8.714;2023-12-07T07:31:50;17.10;;;9.50;;
7531;SDS011;3807;49.030;8.714;2023-12-07T07:34:15;12.20;;;7.73;;
7531;SDS011;3807;49.030;8.714;2023-12-07T07:36:41;18.13;;;9.00;;
7531;SDS011;3807;49.030;8.714;2023-12-07T07:39:06;16.07;;;7.50;;
7531;SDS011;3807;49.030;8.714;2023-12-07T07:41:33;16.10;;;8.67;;
7531;SDS011;3807;49.030;8.714;2023-12-07T07:43:59;12.93;;;8.20;;
7531;SDS011;3807;49.030;8.714;2023-12-07T07:46:25;17.50;;;7.33;;
7531;SDS011;3807;49.030;8.714;2023-12-07T07:48:50;13.87;;;7.63;;
7531;SDS011;3807;49.030;8.714;2023-12-07T07:51:15;13.13;;;6.97;;
7531;SDS011;3807;49.030;8.714;2023-12-07T07:53:41;12.27;;;7.93;;
7531;SDS011;3807;49.030;8.714;2023-12-07T07:56:06;16.10;;;8.13;;
7531;SDS011;3807;49.030;8.714;2023-12-07T07:58:33;15.60;;;7.77;;
7531;SDS011;3807;49.030;8.714;2023-12-07T08:00:59;13.00;;;7.80;;
7531;SDS011;3807;49.030;8.714;2023-12-07T08:03:24;13.87;;;6.90;;
7531;SDS011;3807;49.030;8.714;2023-12-07T08:05:49;12.97;;;7.70;;
7531;SDS011;3807;49.030;8.714;2023-12-07T08:08:15;14.77;;;8.10;;
7531;SDS011;3807;49.030;8.714;2023-12-07T08:10:40;14.90;;;8.20;;
7531;SDS011;3807;49.030;8.714;2023-12-07T08:13:05;14.47;;;7.80;;
7531;SDS011;3807;49.030;8.714;2023-12-07T08:15:32;14.63;;;8.13;;
7531;SDS011;3807;49.030;8.714;2023-12-07T08:17:58;17.13;;;9.73;;
7531;SDS011;3807;49.030;8.714;2023-12-07T08:20:24;14.03;;;7.40;;
7531;SDS011;3807;49.030;8.714;2023-12-07T08:22:50;12.90;;;7.73;;
7531;SDS011;3807;49.030;8.714;2023-12-07T08:25:15;26.67;;;8.60;;
7531;SDS011;3807;49.030;8.714;2023-12-07T08:27:42;28.27;;;8.50;;
7531;SDS011;3807;49.030;8.714;2023-12-07T08:30:09;24.40;;;8.57;;
7531;SDS011;3807;49.030;8.714;2023-12-07T08:32:35;16.73;;;8.87;;
7531;SDS011;3807;49.030;8.714;2023-12-07T08:35:01;24.73;;;10.17;;
7531;SDS011;3807;49.030;8.714;2023-12-07T08:37:27;30.47;;;13.17;;
7531;SDS011;3807;49.030;8.714;2023-12-07T08:39:52;32.23;;;15.40;;
7531;SDS011;3807;49.030;8.714;2023-12-07T08:42:17;29.43;;;12.87;;
7531;SDS011;3807;49.030;8.714;2023-12-07T08:44:43;29.33;;;14.63;;
7531;SDS011;3807;49.030;8.714;2023-12-07T08:47:08;29.77;;;14.03;;
7531;SDS011;3807;49.030;8.714;2023-12-07T08:49:34;24.67;;;13.27;;
7531;SDS011;3807;49.030;8.714;2023-12-07T08:51:59;31.17;;;12.13;;
7531;SDS011;3807;49.030;8.714;2023-12-07T08:54:24;28.33;;;15.63;;
7531;SDS011;3807;49.030;8.714;2023-12-07T08:56:50;23.70;;;12.57;;
7531;SDS011;3807;49.030;8.714;2023-12-07T08:59:16;18.63;;;10.90;;
7531;SDS011;3807;49.030;8.714;2023-12-07T09:01:41;21.17;;;11.90;;
7531;SDS011;3807;49.030;8.714;2023-12-07T09:04:07;19.77;;;10.87;;
7531;SDS011;3807;49.030;8.714;2023-12-07T09:06:32;18.03;;;10.40;;
7531;SDS011;3807;49.030;8.714;2023-12-07T09:08:57;21.87;;;11.23;;
7531;SDS011;3807;49.030;8.714;2023-12-07T09:11:23;20.53;;;10.67;;
7531;SDS011;3807;49.030;8.714;2023-12-07T09:13:49;16.37;;;10.00;;
7531;SDS011;3807;49.030;8.714;2023-12-07T09:16:14;17.30;;;10.63;;
7531;SDS011;3807;49.030;8.714;2023-12-07T09:18:41;20.17;;;10.27;;
7531;SDS011;3807;49.030;8.714;2023-12-07T09:21:11;18.33;;;9.97;;
7531;SDS011;3807;49.030;8.714;2023-12-07T09:23:36;19.57;;;9.53;;
7531;SDS011;3807;49.030;8.714;2023-12-07T09:26:02;15.03;;;8.33;;
7531;SDS011;3807;49.030;8.714;2023-12-07T09:28:28;15.40;;;8.93;;
7531;SDS011;3807;49.030;8.714;2023-12-07T09:30:53;20.27;;;10.03;;
7531;SDS011;3807;49.030;8.714;2023-12-07T09:33:19;19.50;;;10.47;;
7531;SDS011;3807;49.030;8.714;2023-12-07T09:35:44;16.37;;;9.93;;
7531;SDS011;3807;49.030;8.714;2023-12-07T09:38:10;17.07;;;10.77;;
7531;SDS011;3807;49.030;8.714;2023-12-07T09:40:35;17.67;;;10.03;;
7531;SDS011;3807;49.030;8.714;2023-12-07T09:43:00;20.77;;;10.53;;
7531;SDS011;3807;49.030;8.714;2023-12-07T09:45:26;14.67;;;8.70;;
7531;SDS011;3807;49.030;8.714;2023-12-07T09:47:52;15.47;;;8.97;;
7531;SDS011;3807;49.030;8.714;2023-12-07T09:50:22;18.13;;;8.57;;
7531;SDS011;3807;49.030;8.714;2023-12-07T09:52:49;14.80;;;9.73;;
7531;SDS011;3807;49.030;8.714;2023-12-07T09:55:19;15.77;;;8.80;;
7531;SDS011;3807;49.030;8.714;2023-12-07T09:57:47;17.60;;;9.97;;
7531;SDS011;3807;49.030;8.714;2023-12-07T10:00:13;20.67;;;9.77;;
7531;SDS011;3807;49.030;8.714;2023-12-07T10:02:40;21.73;;;9.50;;
7531;SDS011;3807;49.030;8.714;2023-12-07T10:07:33;18.50;;;9.20;;
7531;SDS011;3807;49.030;8.714;2023-12-07T10:10:03;24.43;;;10.73;;
7531;SDS011;3807;49.030;8.714;2023-12-07T10:12:32;15.13;;;8.00;;
7531;SDS011;3807;49.030;8.714;2023-12-07T10:15:01;19.67;;;8.90;;
7531;SDS011;3807;49.030;8.714;2023-12-07T10:20:26;14.13;;;7.73;;
7531;SDS011;3807;49.030;8.714;2023-12-07T10:25:29;16.60;;;9.20;;
7531;SDS011;3807;49.030;8.714;2023-12-07T10:27:55;16.03;;;8.90;;
7531;SDS011;3807;49.030;8.714;2023-12-07T10:30:21;15.13;;;8.47;;
7531;SDS011;3807;49.030;8.714;2023-12-07T10:32:50;16.43;;;8.87;;
7531;SDS011;3807;49.030;8.714;2023-12-07T10:35:16;15.53;;;9.53;;
7531;SDS011;3807;49.030;8.714;2023-12-07T10:37:41;15.43;;;9.87;;
7531;SDS011;3807;49.030;8.714;2023-12-07T10:40:07;23.00;;;11.80;;
7531;SDS011;3807;49.030;8.714;2023-12-07T10:42:33;19.37;;;10.17;;
7531;SDS011;3807;49.030;8.714;2023-12-07T10:45:02;14.53;;;8.70;;
7531;SDS011;3807;49.030;8.714;2023-12-07T10:47:29;18.07;;;8.73;;
7531;SDS011;3807;49.030;8.714;2023-12-07T10:49:57;17.90;;;9.77;;
7531;SDS011;3807;49.030;8.714;2023-12-07T10:52:25;17.23;;;8.87;;
7531;SDS011;3807;49.030;8.714;2023-12-07T10:55:08;16.33;;;9.20;;
7531;SDS011;3807;49.030;8.714;2023-12-07T10:57:51;15.13;;;8.43;;
7531;SDS011;3807;49.030;8.714;2023-12-07T11:00:19;16.83;;;7.73;;
7531;SDS011;3807;49.030;8.714;2023-12-07T11:02:48;12.37;;;8.03;;
7531;SDS011;3807;49.030;8.714;2023-12-07T11:05:17;12.23;;;7.83;;
7531;SDS011;3807;49.030;8.714;2023-12-07T11:07:54;37.90;;;14.80;;
7531;SDS011;3807;49.030;8.714;2023-12-07T11:10:25;15.63;;;9.43;;
7531;SDS011;3807;49.030;8.714;2023-12-07T11:13:16;19.27;;;9.60;;
7531;SDS011;3807;49.030;8.714;2023-12-07T11:15:45;15.50;;;8.70;;
7531;SDS011;3807;49.030;8.714;2023-12-07T11:18:11;19.70;;;9.47;;
7531;SDS011;3807;49.030;8.714;2023-12-07T11:20:39;18.87;;;8.17;;
7531;SDS011;3807;49.030;8.714;2023-12-07T11:23:07;14.83;;;9.27;;
7531;SDS011;3807;49.030;8.714;2023-12-07T11:25:33;13.63;;;8.10;;
7531;SDS011;3807;49.030;8.714;2023-12-07T11:28:02;14.07;;;7.90;;
7531;SDS011;3807;49.030;8.714;2023-12-07T11:30:31;16.00;;;7.47;;
7531;SDS011;3807;49.030;8.714;2023-12-07T11:32:59;11.40;;;5.90;;
7531;SDS011;3807;49.030;8.714;2023-12-07T11:35:25;10.00;;;6.37;;
7531;SDS011;3807;49.030;8.714;2023-12-07T11:38:03;6.90;;;5.33;;
7531;SDS011;3807;49.030;8.714;2023-12-07T11:40:42;12.47;;;6.67;;
7531;SDS011;3807;49.030;8.714;2023-12-07T11:46:09;7.77;;;5.70;;
7531;SDS011;3807;49.030;8.714;2023-12-07T11:48:34;10.30;;;6.13;;
7531;SDS011;3807;49.030;8.714;2023-12-07T11:51:01;11.27;;;6.67;;
7531;SDS011;3807;49.030;8.714;2023-12-07T11:53:31;11.13;;;6.13;;
7531;SDS011;3807;49.030;8.714;2023-12-07T11:56:01;9.63;;;5.70;;
7531;SDS011;3807;49.030;8.714;2023-12-07T11:58:32;10.10;;;6.33;;
7531;SDS011;3807;49.030;8.714;2023-12-07T12:01:00;10.07;;;6.70;;
7531;SDS011;3807;49.030;8.714;2023-12-07T12:03:26;9.70;;;5.70;;
7531;SDS011;3807;49.030;8.714;2023-12-07T12:05:52;12.20;;;6.33;;
7531;SDS011;3807;49.030;8.714;2023-12-07T12:08:19;16.57;;;6.30;;
7531;SDS011;3807;49.030;8.714;2023-12-07T12:10:45;21.27;;;7.23;;
7531;SDS011;3807;49.030;8.714;2023-12-07T12:13:13;15.20;;;7.57;;
7531;SDS011;3807;49.030;8.714;2023-12-07T12:15:39;10.93;;;6.90;;
7531;SDS011;3807;49.030;8.714;2023-12-07T12:18:05;12.10;;;7.43;;
7531;SDS011;3807;49.030;8.714;2023-12-07T12:20:31;13.00;;;6.67;;
7531;SDS011;3807;49.030;8.714;2023-12-07T12:22:57;10.23;;;5.60;;
7531;SDS011;3807;49.030;8.714;2023-12-07T12:25:24;9.07;;;6.17;;
7531;SDS011;3807;49.030;8.714;2023-12-07T12:27:57;10.00;;;6.43;;
7531;SDS011;3807;49.030;8.714;2023-12-07T12:30:25;15.37;;;7.93;;
7531;SDS011;3807;49.030;8.714;2023-12-07T12:32:52;14.07;;;7.37;;
7531;SDS011;3807;49.030;8.714;2023-12-07T12:35:18;10.37;;;6.83;;
7531;SDS011;3807;49.030;8.714;2023-12-07T12:37:44;12.90;;;8.37;;
7531;SDS011;3807;49.030;8.714;2023-12-07T12:40:10;12.63;;;7.77;;
7531;SDS011;3807;49.030;8.714;2023-12-07T12:42:38;18.87;;;7.50;;
7531;SDS011;3807;49.030;8.714;2023-12-07T12:45:05;15.07;;;7.87;;
7531;SDS011;3807;49.030;8.714;2023-12-07T12:47:33;11.60;;;6.07;;
7531;SDS011;3807;49.030;8.714;2023-12-07T12:49:58;14.17;;;7.67;;
7531;SDS011;3807;49.030;8.714;2023-12-07T12:52:24;15.50;;;7.00;;
7531;SDS011;3807;49.030;8.714;2023-12-07T12:54:55;13.27;;;7.87;;
7531;SDS011;3807;49.030;8.714;2023-12-07T12:57:20;13.83;;;8.37;;
7531;SDS011;3807;49.030;8.714;2023-12-07T12:59:46;12.30;;;7.87;;
7531;SDS011;3807;49.030;8.714;2023-12-07T13:02:13;14.43;;;8.63;;
7531;SDS011;3807;49.030;8.714;2023-12-07T13:04:38;11.10;;;7.47;;
7531;SDS011;3807;49.030;8.714;2023-12-07T13:07:04;13.53;;;8.03;;
7531;SDS011;3807;49.030;8.714;2023-12-07T13:09:29;12.67;;;8.17;;
7531;SDS011;3807;49.030;8.714;2023-12-07T13:11:55;18.30;;;8.03;;
7531;SDS011;3807;49.030;8.714;2023-12-07T13:14:20;11.83;;;8.17;;
7531;SDS011;3807;49.030;8.714;2023-12-07T13:16:45;11.40;;;7.93;;
7531;SDS011;3807;49.030;8.714;2023-12-07T13:19:11;20.87;;;8.00;;
7531;SDS011;3807;49.030;8.714;2023-12-07T13:21:36;15.20;;;7.07;;
7531;SDS011;3807;49.030;8.714;2023-12-07T13:24:01;11.57;;;7.27;;
7531;SDS011;3807;49.030;8.714;2023-12-07T13:26:29;12.07;;;7.00;;
7531;SDS011;3807;49.030;8.714;2023-12-07T13:28:55;16.53;;;7.80;;
7531;SDS011;3807;49.030;8.714;2023-12-07T13:31:20;16.43;;;8.17;;
7531;SDS011;3807;49.030;8.714;2023-12-07T13:33:46;16.00;;;7.67;;
7531;SDS011;3807;49.030;8.714;2023-12-07T13:36:12;10.83;;;6.97;;
7531;SDS011;3807;49.030;8.714;2023-12-07T13:38:37;10.90;;;6.93;;
7531;SDS011;3807;49.030;8.714;2023-12-07T13:41:03;16.77;;;7.47;;
7531;SDS011;3807;49.030;8.714;2023-12-07T13:43:28;17.67;;;8.20;;
7531;SDS011;3807;49.030;8.714;2023-12-07T13:45:54;11.47;;;7.33;;
7531;SDS011;3807;49.030;8.714;2023-12-07T13:48:20;14.47;;;7.40;;
7531;SDS011;3807;49.030;8.714;2023-12-07T13:50:45;16.20;;;7.63;;
7531;SDS011;3807;49.030;8.714;2023-12-07T13:53:10;13.27;;;7.60;;
7531;SDS011;3807;49.030;8.714;2023-12-07T13:55:37;10.53;;;6.20;;
7531;SDS011;3807;49.030;8.714;2023-12-07T13:58:04;11.10;;;6.73;;
7531;SDS011;3807;49.030;8.714;2023-12-07T14:00:31;13.00;;;5.83;;
7531;SDS011;3807;49.030;8.714;2023-12-07T14:02:57;12.30;;;5.30;;
7531;SDS011;3807;49.030;8.714;2023-12-07T14:05:22;14.33;;;6.50;;
7531;SDS011;3807;49.030;8.714;2023-12-07T14:07:49;9.50;;;5.50;;
7531;SDS011;3807;49.030;8.714;2023-12-07T14:10:15;9.40;;;5.40;;
7531;SDS011;3807;49.030;8.714;2023-12-07T14:12:40;13.93;;;6.10;;
7531;SDS011;3807;49.030;8.714;2023-12-07T14:15:06;8.83;;;5.83;;
7531;SDS011;3807;49.030;8.714;2023-12-07T14:17:32;10.33;;;5.73;;
7531;SDS011;3807;49.030;8.714;2023-12-07T14:20:03;8.97;;;5.27;;
7531;SDS011;3807;49.030;8.714;2023-12-07T14:22:32;12.40;;;5.30;;
7531;SDS011;3807;49.030;8.714;2023-12-07T14:24:58;13.70;;;6.10;;
7531;SDS011;3807;49.030;8.714;2023-12-07T14:27:23;11.60;;;5.50;;
7531;SDS011;3807;49.030;8.714;2023-12-07T14:29:50;9.00;;;5.13;;
7531;SDS011;3807;49.030;8.714;2023-12-07T14:32:15;11.97;;;5.70;;
7531;SDS011;3807;49.030;8.714;2023-12-07T14:34:40;13.57;;;6.97;;
7531;SDS011;3807;49.030;8.714;2023-12-07T14:37:06;12.93;;;5.97;;
7531;SDS011;3807;49.030;8.714;2023-12-07T14:39:33;12.47;;;6.67;;
7531;SDS011;3807;49.030;8.714;2023-12-07T14:42:01;13.73;;;6.23;;
7531;SDS011;3807;49.030;8.714;2023-12-07T14:44:27;9.97;;;5.90;;
7531;SDS011;3807;49.030;8.714;2023-12-07T14:46:54;8.20;;;5.57;;
7531;SDS011;3807;49.030;8.714;2023-12-07T14:49:19;10.50;;;5.47;;
7531;SDS011;3807;49.030;8.714;2023-12-07T14:51:46;8.07;;;4.93;;
7531;SDS011;3807;49.030;8.714;2023-12-07T14:54:14;8.27;;;5.23;;
7531;SDS011;3807;49.030;8.714;2023-12-07T14:56:41;11.80;;;5.37;;
7531;SDS011;3807;49.030;8.714;2023-12-07T14:59:08;7.63;;;5.27;;
7531;SDS011;3807;49.030;8.714;2023-12-07T15:01:37;9.40;;;5.20;;
7531;SDS011;3807;49.030;8.714;2023-12-07T15:04:06;6.37;;;4.50;;
7531;SDS011;3807;49.030;8.714;2023-12-07T15:06:31;7.17;;;4.27;;